Time;durP1;ratioP1;P1;durP2;ratioP2;P2;SDS_P1;SDS_P2;PMS_P1;PMS_P2;Temp;Humidity;BMP_temperature;BMP_pressure;BME280_temperature;BME280_humidity;BME280_pressure;Samples;Min_cycle;Max_cycle;Signal;HPM_P1;HPM_P2
2024/03/09 00:00:56;;;;;;;6.35;3.50;;;;;;;5.72;62.86;91727.47;2071271;69;20652;-77
2024/03/09 00:03:21;;;;;;;6.35;3.50;;;;;;;5.84;62.83;91725.44;2067503;69;20192;-78
2024/03/09 00:05:48;;;;;;;5.88;3.15;;;;;;;5.25;65.04;91732.88;2071396;69;20227;-76
2024/03/09 00:08:17;;;;;;;6.53;3.53;;;;;;;5.57;64.54;91728.63;2068201;69;20155;-78
2024/03/09 00:10:44;;;;;;;5.95;3.10;;;;;;;5.66;63.40;91718.72;2071314;69;20141;-78
2024/03/09 00:13:10;;;;;;;6.30;3.10;;;;;;;5.06;65.58;91717.03;2068071;69;20232;-76
2024/03/09 00:15:36;;;;;;;5.40;3.15;;;;;;;5.52;64.33;91726.19;2067701;69;20227;-77
2024/03/09 00:18:02;;;;;;;6.40;3.30;;;;;;;5.71;63.38;91723.22;2071263;69;20256;-78
2024/03/09 00:20:34;;;;;;;6.95;3.70;;;;;;;5.80;63.09;91722.38;2071535;69;20164;-77
2024/03/09 00:23:03;;;;;;;5.77;3.37;;;;;;;5.81;63.73;91712.66;2071425;69;20175;-77
2024/03/09 00:25:29;;;;;;;7.30;3.40;;;;;;;5.23;64.51;91727.19;2071385;69;20591;-77
2024/03/09 00:27:56;;;;;;;9.63;4.70;;;;;;;5.56;64.02;91724.38;2067855;69;20607;-76
2024/03/09 00:30:24;;;;;;;10.73;5.47;;;;;;;5.77;63.41;91718.03;2071271;69;20547;-77
2024/03/09 00:32:57;;;;;;;8.88;3.50;;;;;;;5.59;63.01;91725.25;2071043;69;20599;-77
2024/03/09 00:35:24;;;;;;;6.37;3.50;;;;;;;5.30;64.45;91729.03;2071492;69;20167;-77
2024/03/09 00:37:50;;;;;;;5.57;3.28;;;;;;;5.27;64.66;91729.50;2071444;69;20249;-76
2024/03/09 00:40:17;;;;;;;8.63;4.47;;;;;;;5.61;63.69;91717.00;2071443;69;20147;-76
2024/03/09 00:42:45;;;;;;;7.28;3.78;;;;;;;5.78;62.61;91722.28;2070944;69;20186;-77
2024/03/09 00:45:15;;;;;;;8.00;3.55;;;;;;;5.35;64.35;91725.16;2067906;69;20175;-77
2024/03/09 00:47:46;;;;;;;7.25;3.47;;;;;;;5.39;64.67;91721.19;2062386;69;20148;-77
2024/03/09 00:50:13;;;;;;;7.15;3.50;;;;;;;5.73;62.89;91700.28;2071460;69;20305;-78
2024/03/09 00:52:40;;;;;;;8.05;3.65;;;;;;;5.39;64.43;91687.69;2068084;69;20269;-78
2024/03/09 00:55:16;;;;;;;10.00;3.67;;;;;;;5.35;65.29;91694.47;2071398;69;20595;-79
2024/03/09 00:57:50;;;;;;;5.95;3.33;;;;;;;5.60;63.58;91676.47;2071298;69;20164;-78
2024/03/09 01:00:18;;;;;;;6.97;3.70;;;;;;;5.64;63.71;91670.41;2068110;69;20147;-77
2024/03/09 01:02:45;;;;;;;7.18;3.17;;;;;;;5.37;64.56;91660.38;2071018;69;20140;-77
2024/03/09 01:05:12;;;;;;;9.18;3.78;;;;;;;5.57;63.41;91655.31;2067737;69;20140;-78
2024/03/09 01:07:39;;;;;;;7.03;3.78;;;;;;;5.09;64.81;91648.16;2071187;69;20175;-77
2024/03/09 01:10:06;;;;;;;9.05;4.10;;;;;;;4.93;66.38;91661.78;2071294;69;20159;-78
2024/03/09 01:16:19;;;;;;;5.55;3.53;;;;;;;4.72;67.66;91659.75;2071511;69;20143;-78
2024/03/09 01:18:44;;;;;;;7.43;3.42;;;;;;;5.09;66.06;91660.06;2071301;69;20140;-78
2024/03/09 01:21:10;;;;;;;8.82;3.03;;;;;;;5.17;65.42;91664.66;2071489;69;20588;-78
2024/03/09 01:23:36;;;;;;;8.60;3.83;;;;;;;4.26;68.02;91665.75;2068235;69;20201;-78
2024/03/09 01:26:09;;;;;;;7.18;3.65;;;;;;;4.75;67.16;91671.75;2071544;69;20167;-78
2024/03/09 01:28:36;;;;;;;7.03;3.70;;;;;;;5.08;65.40;91669.72;2071405;69;20594;-77
2024/03/09 01:31:04;;;;;;;5.85;3.47;;;;;;;4.89;65.37;91667.09;2071283;69;20159;-77
2024/03/09 01:33:31;;;;;;;6.60;3.75;;;;;;;5.02;65.53;91679.78;2068049;69;20210;-78
2024/03/09 01:35:58;;;;;;;6.25;3.55;;;;;;;4.96;65.46;91673.81;2071504;69;20148;-77
2024/03/09 01:38:24;;;;;;;7.80;3.50;;;;;;;4.91;65.52;91661.66;2071400;69;20504;-77
2024/03/09 01:40:49;;;;;;;6.00;3.45;;;;;;;4.99;65.65;91658.66;2067567;69;20164;-78
2024/03/09 01:43:18;;;;;;;5.55;3.10;;;;;;;4.96;65.39;91676.59;2071180;69;20484;-78
2024/03/09 01:45:44;;;;;;;6.00;3.63;;;;;;;4.26;67.50;91685.28;2071284;69;20138;-78
2024/03/09 01:48:16;;;;;;;7.40;3.30;;;;;;;4.73;65.78;91674.44;2071303;69;20152;-78
2024/03/09 01:54:31;;;;;;;7.00;3.60;;;;;;;4.57;66.22;91646.94;2071456;69;20223;-78
2024/03/09 01:56:57;;;;;;;5.53;3.20;;;;;;;4.76;65.77;91648.84;2071582;69;20220;-78
2024/03/09 01:59:29;;;;;;;8.82;3.03;;;;;;;4.71;65.86;91643.63;2071839;69;20846;-78
2024/03/09 02:01:56;;;;;;;9.15;3.10;;;;;;;4.50;66.57;91644.38;2071816;69;20466;-78
2024/03/09 02:04:23;;;;;;;6.75;3.65;;;;;;;4.24;67.96;91654.50;2068642;69;20302;-78
2024/03/09 02:06:51;;;;;;;5.85;3.15;;;;;;;4.49;66.95;91654.03;2071980;69;20148;-78
2024/03/09 02:09:19;;;;;;;9.25;3.03;;;;;;;4.42;66.21;91650.13;2071834;69;20136;-78
2024/03/09 02:11:47;;;;;;;6.43;3.67;;;;;;;3.29;71.22;91668.94;2071819;69;20132;-77
2024/03/09 02:14:14;;;;;;;9.25;4.32;;;;;;;3.89;69.95;91663.31;2071986;69;20616;-77
2024/03/09 02:16:41;;;;;;;8.27;3.60;;;;;;;4.28;67.68;91657.56;2065644;69;20157;-78
2024/03/09 02:19:13;;;;;;;5.97;3.35;;;;;;;4.03;67.91;91650.38;2071964;69;20147;-78
2024/03/09 02:21:40;;;;;;;6.20;3.58;;;;;;;4.24;67.68;91632.94;2071743;69;20133;-77
2024/03/09 02:24:08;;;;;;;8.90;3.65;;;;;;;4.19;67.99;91638.84;2071830;69;20179;-78
2024/03/09 02:26:39;;;;;;;6.38;3.45;;;;;;;4.16;67.03;91645.59;2065916;69;20235;-78
2024/03/09 02:29:05;;;;;;;7.22;3.30;;;;;;;4.32;66.91;91639.06;2071783;69;20600;-78
2024/03/09 02:31:32;;;;;;;5.45;3.35;;;;;;;4.30;66.99;91630.53;2071605;69;20588;-77
2024/03/09 02:33:58;;;;;;;7.43;3.55;;;;;;;4.21;67.91;91636.91;2071492;69;20156;-77
2024/03/09 02:36:28;;;;;;;5.20;3.20;;;;;;;4.25;66.76;91647.59;2071293;69;20217;-78
2024/03/09 02:38:54;;;;;;;5.85;3.33;;;;;;;4.20;66.70;91645.88;2071604;69;20204;-77
2024/03/09 02:41:24;;;;;;;5.25;3.03;;;;;;;4.29;65.86;91640.25;2071846;69;20136;-77
2024/03/09 02:43:50;;;;;;;5.53;3.33;;;;;;;4.25;66.73;91656.69;2068241;69;20175;-79
2024/03/09 02:46:18;;;;;;;8.13;3.25;;;;;;;4.18;66.40;91654.09;2071726;69;20599;-78
2024/03/09 02:48:46;;;;;;;6.47;3.40;;;;;;;4.08;67.18;91654.16;2071865;69;20227;-79
2024/03/09 02:51:16;;;;;;;6.57;3.60;;;;;;;4.03;67.75;91653.16;2071385;69;20159;-78
2024/03/09 02:53:45;;;;;;;10.40;3.25;;;;;;;4.06;67.75;91635.25;2071773;69;20210;-78
2024/03/09 03:00:00;;;;;;;6.10;3.40;;;;;;;4.08;67.11;91645.81;2071849;69;20190;-77
2024/03/09 03:05:09;;;;;;;4.93;3.13;;;;;;;4.07;67.11;91633.91;2071694;69;20192;-77
2024/03/09 03:07:35;;;;;;;6.45;3.20;;;;;;;3.95;67.95;91629.59;2071771;69;20500;-77
2024/03/09 03:10:01;;;;;;;12.35;6.35;;;;;;;3.76;68.65;91628.38;2071603;69;20151;-77
2024/03/09 03:12:27;;;;;;;7.93;4.57;;;;;;;3.99;67.70;91625.03;2071632;69;20184;-77
2024/03/09 03:14:53;;;;;;;7.22;4.10;;;;;;;3.93;67.99;91621.81;2071773;69;20236;-77
2024/03/09 03:17:23;;;;;;;11.57;5.75;;;;;;;3.95;67.79;91621.25;2068151;69;20592;-78
2024/03/09 03:19:49;;;;;;;9.95;5.20;;;;;;;3.52;68.99;91619.06;2071786;69;20132;-78
2024/03/09 03:22:15;;;;;;;12.45;5.30;;;;;;;3.66;68.29;91605.41;2071879;69;20148;-78
2024/03/09 03:28:28;;;;;;;10.48;5.72;;;;;;;3.79;67.63;91606.94;2071620;69;20151;-78
2024/03/09 03:30:54;;;;;;;15.65;7.30;;;;;;;3.81;67.96;91612.66;2071693;69;20156;-78
2024/03/09 03:33:21;;;;;;;12.10;6.40;;;;;;;3.55;68.49;91608.81;2071733;69;20148;-78
2024/03/09 03:35:46;;;;;;;11.20;5.97;;;;;;;3.54;68.41;91596.97;2071677;69;20220;-78
2024/03/09 03:38:12;;;;;;;11.68;5.45;;;;;;;3.49;68.05;91589.66;2071732;69;20191;-77
2024/03/09 03:40:38;;;;;;;14.15;5.85;;;;;;;3.41;69.43;91600.22;2071561;69;20157;-76
2024/03/09 03:43:03;;;;;;;7.57;4.47;;;;;;;3.41;69.80;91591.16;2071542;69;20156;-77
2024/03/09 03:45:29;;;;;;;10.13;4.30;;;;;;;3.54;68.84;91605.31;2071719;69;20164;-77
2024/03/09 03:47:55;;;;;;;7.13;3.90;;;;;;;3.29;70.56;91614.03;2071920;69;20156;-75
2024/03/09 03:50:23;;;;;;;9.90;3.75;;;;;;;3.18;71.24;91620.22;2071396;69;20527;-77
2024/03/09 03:52:49;;;;;;;7.95;4.85;;;;;;;3.54;69.07;91613.66;2065486;69;20136;-78
2024/03/09 03:55:15;;;;;;;7.38;4.20;;;;;;;3.60;68.98;91607.78;2071932;69;20152;-77
2024/03/09 03:57:42;;;;;;;4.97;3.25;;;;;;;3.64;69.00;91598.97;2071690;69;20175;-78
2024/03/09 04:00:15;;;;;;;7.07;3.90;;;;;;;3.06;71.52;91608.97;2071478;69;20597;-78
2024/03/09 04:02:41;;;;;;;6.57;3.72;;;;;;;3.39;69.21;91607.69;2071612;69;20144;-76
2024/03/09 04:05:08;;;;;;;5.78;3.72;;;;;;;3.44;68.87;91604.63;2071776;69;20150;-78
2024/03/09 04:07:34;;;;;;;5.40;3.75;;;;;;;3.44;67.78;91606.69;2071673;69;20221;-78
2024/03/09 04:10:12;;;;;;;7.03;3.67;;;;;;;3.41;68.38;91603.00;2071717;69;20168;-76
2024/03/09 04:12:41;;;;;;;6.18;3.50;;;;;;;3.39;68.41;91611.22;2067978;69;20144;-76
2024/03/09 04:15:14;;;;;;;6.88;3.92;;;;;;;3.11;69.24;91620.38;2071718;69;20141;-76
2024/03/09 04:17:42;;;;;;;8.35;4.93;;;;;;;3.36;68.79;91612.41;2071360;69;20147;-77
2024/03/09 04:20:09;;;;;;;8.65;5.05;;;;;;;3.27;68.25;91602.78;2071731;69;20182;-77
2024/03/09 04:22:35;;;;;;;11.38;5.38;;;;;;;3.15;69.65;91613.03;2071428;69;20532;-76
2024/03/09 04:25:01;;;;;;;7.45;4.10;;;;;;;3.21;69.42;91626.66;2071474;69;20160;-77
2024/03/09 04:27:31;;;;;;;8.85;4.10;;;;;;;3.23;69.09;91608.03;2071167;69;20228;-76
2024/03/09 04:29:57;;;;;;;5.85;3.83;;;;;;;3.26;68.57;91617.28;2071653;69;20140;-76
2024/03/09 04:32:27;;;;;;;7.50;4.03;;;;;;;3.19;68.48;91626.50;2071593;69;20158;-77
2024/03/09 04:35:02;;;;;;;8.20;3.83;;;;;;;3.21;68.49;91621.81;2068355;69;20280;-76
2024/03/09 04:37:27;;;;;;;5.38;3.50;;;;;;;3.15;69.02;91612.31;2071622;69;20233;-77
2024/03/09 04:39:58;;;;;;;10.18;4.10;;;;;;;2.31;73.01;91623.06;2071482;69;20599;-77
2024/03/09 04:42:25;;;;;;;7.47;4.20;;;;;;;2.82;70.96;91621.16;2071412;69;20659;-76
2024/03/09 04:44:51;;;;;;;9.20;4.20;;;;;;;3.05;70.40;91612.34;2071432;69;20542;-75
2024/03/09 04:47:18;;;;;;;7.10;3.70;;;;;;;3.06;70.64;91603.41;2071222;69;20144;-77
2024/03/09 04:49:47;;;;;;;8.98;4.78;;;;;;;2.97;70.26;91606.94;2067828;69;20140;-77
2024/03/09 04:52:14;;;;;;;8.05;4.22;;;;;;;2.91;69.21;91573.16;2071652;69;20543;-77
2024/03/09 04:54:46;;;;;;;7.10;2.80;;;;;;;3.01;70.08;91606.50;2065355;69;20201;-77
2024/03/09 04:57:17;;;;;;;4.38;2.20;;;;;;;3.09;70.44;91612.63;2071551;69;20538;-77
2024/03/09 04:59:43;;;;;;;4.93;3.10;;;;;;;3.06;68.53;91608.97;2071385;69;20164;-77
2024/03/09 05:02:12;;;;;;;4.97;3.20;;;;;;;2.77;70.95;91605.50;2071331;69;20151;-78
2024/03/09 05:04:38;;;;;;;7.53;3.20;;;;;;;2.32;73.51;91613.41;2071400;69;20152;-78
2024/03/09 05:07:03;;;;;;;3.95;2.92;;;;;;;2.76;70.96;91598.50;2071355;69;20179;-77
2024/03/09 05:09:30;;;;;;;6.32;3.40;;;;;;;2.82;70.23;91596.13;2071013;69;20325;-76
2024/03/09 05:11:57;;;;;;;6.20;4.03;;;;;;;2.84;69.94;91603.88;2067705;69;20187;-76
2024/03/09 05:14:24;;;;;;;7.10;3.55;;;;;;;2.94;69.65;91615.72;2071083;69;20196;-77
2024/03/09 05:16:50;;;;;;;8.43;3.35;;;;;;;2.99;69.11;91618.22;2068189;69;20144;-76
2024/03/09 05:19:17;;;;;;;6.60;3.20;;;;;;;2.81;69.51;91628.03;2071665;69;20179;-77
2024/03/09 05:21:44;;;;;;;7.55;3.10;;;;;;;2.79;69.13;91630.66;2071370;69;20182;-77
2024/03/09 05:24:11;;;;;;;5.20;3.13;;;;;;;2.67;69.00;91630.53;2071427;69;20137;-77
2024/03/09 05:26:36;;;;;;;13.63;8.93;;;;;;;2.62;69.57;91636.38;2071087;69;20239;-77
2024/03/09 05:29:02;;;;;;;6.07;4.00;;;;;;;2.65;69.50;91624.09;2071228;69;20239;-76
2024/03/09 05:31:30;;;;;;;11.93;4.63;;;;;;;2.74;69.12;91626.13;2068318;69;20144;-76
2024/03/09 05:33:56;;;;;;;9.32;7.00;;;;;;;2.74;69.78;91635.19;2071783;69;20164;-76
2024/03/09 05:36:23;;;;;;;8.35;5.40;;;;;;;2.80;69.23;91624.53;2071961;69;20598;-75
2024/03/09 05:38:50;;;;;;;6.00;3.92;;;;;;;2.84;69.63;91626.13;2072135;69;20182;-77
2024/03/09 05:41:16;;;;;;;6.75;4.03;;;;;;;2.89;68.91;91614.72;2071895;69;20592;-76
2024/03/09 05:43:49;;;;;;;7.35;4.07;;;;;;;2.75;69.38;91602.59;2071707;69;20144;-76
2024/03/09 05:46:16;;;;;;;5.55;3.38;;;;;;;2.83;69.34;91605.94;2071532;69;20216;-77
2024/03/09 05:48:44;;;;;;;5.00;3.40;;;;;;;2.86;68.92;91590.88;2071744;69;20164;-77
2024/03/09 05:51:11;;;;;;;6.60;2.80;;;;;;;2.88;69.53;91607.69;2071862;69;20218;-76
2024/03/09 05:53:38;;;;;;;6.20;3.63;;;;;;;2.73;70.02;91621.88;2071857;69;20267;-76
2024/03/09 05:59:50;;;;;;;10.68;6.40;;;;;;;2.72;69.22;91596.16;2071945;69;20234;-76
2024/03/09 06:02:16;;;;;;;8.55;5.28;;;;;;;2.10;71.97;91609.72;2071599;69;20611;-76
2024/03/09 06:04:41;;;;;;;8.18;4.75;;;;;;;2.50;71.18;91609.19;2072237;69;20503;-77
2024/03/09 06:07:07;;;;;;;10.52;5.25;;;;;;;2.43;71.77;91614.88;2071811;69;20175;-77
2024/03/09 06:09:32;;;;;;;9.10;4.40;;;;;;;2.57;71.13;91593.69;2071885;69;20607;-77
2024/03/09 06:11:58;;;;;;;8.85;4.18;;;;;;;2.20;71.03;91595.84;2068555;69;20242;-77
2024/03/09 06:14:26;;;;;;;4.93;3.35;;;;;;;2.34;72.64;91613.56;2071774;69;20148;-77
2024/03/09 06:16:52;;;;;;;5.30;3.08;;;;;;;2.67;71.38;91611.06;2071744;69;20206;-76
2024/03/09 06:19:19;;;;;;;5.35;3.42;;;;;;;2.81;70.32;91608.56;2071898;69;20145;-76
2024/03/09 06:21:44;;;;;;;6.45;3.92;;;;;;;2.87;70.17;91625.69;2071363;69;20156;-76
2024/03/09 06:24:10;;;;;;;11.40;7.18;;;;;;;2.34;72.18;91627.47;2071793;69;20169;-77
2024/03/09 06:26:36;;;;;;;10.00;5.57;;;;;;;2.47;71.75;91640.16;2071775;69;20176;-77
2024/03/09 06:29:02;;;;;;;13.15;6.32;;;;;;;2.68;70.25;91634.03;2071959;69;20535;-77
2024/03/09 06:31:28;;;;;;;11.95;7.03;;;;;;;2.78;69.36;91640.31;2071970;69;20175;-77
2024/03/09 06:33:53;;;;;;;10.70;5.68;;;;;;;2.51;70.83;91641.19;2071752;69;20194;-78
2024/03/09 06:36:19;;;;;;;14.10;6.95;;;;;;;2.60;69.84;91647.34;2071779;69;20136;-77
2024/03/09 06:38:45;;;;;;;15.27;7.13;;;;;;;2.69;70.27;91652.91;2071805;69;20154;-77
2024/03/09 06:41:10;;;;;;;10.50;6.60;;;;;;;2.80;69.63;91649.53;2065781;69;20580;-77
2024/03/09 06:43:36;;;;;;;10.80;6.47;;;;;;;2.84;69.67;91651.13;2071632;69;20140;-79
2024/03/09 06:46:04;;;;;;;11.55;5.53;;;;;;;2.93;68.09;91645.59;2071843;69;20137;-78
2024/03/09 06:48:30;;;;;;;11.05;5.00;;;;;;;2.89;68.66;91650.13;2071656;69;20243;-78
2024/03/09 06:50:56;;;;;;;9.90;4.63;;;;;;;2.82;70.14;91653.78;2071697;69;20655;-77
2024/03/09 06:53:24;;;;;;;8.48;4.75;;;;;;;2.93;69.31;91636.50;2071520;69;20180;-78
2024/03/09 06:55:50;;;;;;;14.38;8.00;;;;;;;2.50;70.46;91647.34;2071345;69;20209;-77
2024/03/09 06:58:17;;;;;;;26.77;14.68;;;;;;;2.65;70.36;91635.19;2071310;69;20651;-78
2024/03/09 07:00:43;;;;;;;24.92;13.90;;;;;;;2.76;70.85;91635.34;2071455;69;20176;-78
2024/03/09 07:06:56;;;;;;;22.50;12.73;;;;;;;2.77;70.69;91624.97;2071579;69;20143;-77
2024/03/09 07:09:23;;;;;;;23.27;13.23;;;;;;;2.82;70.59;91609.31;2071453;69;20141;-80
2024/03/09 07:15:37;;;;;;;19.63;11.27;;;;;;;2.81;71.22;91614.13;2071615;69;20131;-80
2024/03/09 07:18:03;;;;;;;20.63;10.90;;;;;;;2.67;70.53;91608.31;2071535;69;20140;-80
2024/03/09 07:20:31;;;;;;;23.70;11.00;;;;;;;2.55;72.27;91610.19;2071699;69;20143;-79
2024/03/09 07:22:56;;;;;;;20.13;11.85;;;;;;;2.77;71.86;91608.28;2068326;69;20730;-79
2024/03/09 07:25:25;;;;;;;23.48;11.15;;;;;;;3.00;70.86;91610.59;2071583;69;20149;-79
2024/03/09 07:27:55;;;;;;;28.52;15.27;;;;;;;3.10;69.94;91608.50;2071607;69;20183;-78
2024/03/09 07:30:21;;;;;;;25.13;13.13;;;;;;;3.04;69.62;91605.31;2068210;69;20487;-77
2024/03/09 07:32:50;;;;;;;18.40;9.98;;;;;;;3.01;70.40;91612.78;2071087;69;20688;-78
2024/03/09 07:35:18;;;;;;;23.83;13.50;;;;;;;3.25;69.85;91610.22;2071495;69;20179;-77
2024/03/09 07:37:48;;;;;;;28.33;13.65;;;;;;;3.11;69.77;91587.00;2071664;69;20148;-77
2024/03/09 07:40:16;;;;;;;27.85;14.60;;;;;;;3.38;69.42;91611.81;2071460;69;20185;-78
2024/03/09 07:42:43;;;;;;;26.52;15.15;;;;;;;3.62;68.92;91605.13;2068386;69;20646;-78
2024/03/09 07:45:11;;;;;;;29.95;15.77;;;;;;;3.68;68.77;91613.91;2071726;69;20176;-78
2024/03/09 07:47:49;;;;;;;26.15;13.88;;;;;;;3.66;68.82;91605.41;2071713;69;20144;-78
2024/03/09 07:54:03;;;;;;;25.17;14.98;;;;;;;3.80;68.99;91620.28;2071180;69;20126;-77
2024/03/09 07:56:28;;;;;;;26.23;12.18;;;;;;;3.86;68.21;91619.97;2071538;69;20213;-79
2024/03/09 07:58:55;;;;;;;24.08;12.40;;;;;;;3.65;69.21;91619.91;2068550;69;20155;-80
2024/03/09 08:01:20;;;;;;;19.92;10.02;;;;;;;3.61;69.70;91619.63;2071715;69;20189;-79
2024/03/09 08:03:46;;;;;;;26.88;11.38;;;;;;;3.78;68.92;91613.84;2071610;69;20128;-79
2024/03/09 08:06:12;;;;;;;13.95;7.53;;;;;;;4.18;68.74;91601.19;2071843;69;20147;-77
2024/03/09 08:08:37;;;;;;;24.20;12.65;;;;;;;4.63;71.69;91592.91;2071711;69;20152;-76
2024/03/09 08:11:03;;;;;;;32.70;17.98;;;;;;;5.15;70.36;91598.31;2071715;69;20164;-78
2024/03/09 08:13:30;;;;;;;25.42;13.15;;;;;;;5.51;69.57;91599.84;2072015;69;20235;-78
2024/03/09 08:15:57;;;;;;;20.98;11.80;;;;;;;5.77;67.34;91595.16;2071322;69;20217;-77
2024/03/09 08:18:22;;;;;;;30.55;15.73;;;;;;;6.22;69.01;91597.81;2071503;69;20168;-77
2024/03/09 08:20:52;;;;;;;31.05;14.63;;;;;;;6.57;66.19;91597.75;2068581;69;20579;-79
2024/03/09 08:23:17;;;;;;;28.17;15.15;;;;;;;7.10;66.84;91597.19;2068416;69;20148;-76
2024/03/09 08:25:43;;;;;;;27.63;12.77;;;;;;;7.08;63.71;91605.47;2071565;69;20160;-78
2024/03/09 08:28:09;;;;;;;20.63;11.23;;;;;;;7.36;62.75;91609.09;2071724;69;20151;-78
2024/03/09 08:30:34;;;;;;;10.75;6.18;;;;;;;7.78;61.15;91587.53;2071642;69;20504;-79
2024/03/09 08:33:01;;;;;;;7.88;4.60;;;;;;;8.52;59.38;91592.81;2068157;69;20160;-79
2024/03/09 08:35:31;;;;;;;10.00;4.70;;;;;;;8.75;57.50;91599.50;2065526;69;20155;-80
2024/03/09 08:37:57;;;;;;;11.50;4.38;;;;;;;9.04;56.29;91596.03;2068547;69;20590;-78
2024/03/09 08:40:25;;;;;;;5.30;3.25;;;;;;;9.40;55.21;91586.53;2068263;69;20152;-81
2024/03/09 08:42:54;;;;;;;12.15;7.50;;;;;;;9.85;56.25;91597.03;2071673;69;20515;-79
2024/03/09 08:45:24;;;;;;;12.13;7.22;;;;;;;9.80;55.69;91591.84;2071638;69;20235;-79
2024/03/09 08:47:51;;;;;;;7.90;4.40;;;;;;;10.04;54.31;91578.91;2071297;69;20167;-79
2024/03/09 08:50:18;;;;;;;7.25;4.20;;;;;;;10.48;53.12;91570.97;2072967;69;20151;-77
2024/03/09 08:52:47;;;;;;;7.32;3.80;;;;;;;10.92;52.04;91577.78;2072859;69;20183;-79
2024/03/09 08:55:14;;;;;;;6.57;3.67;;;;;;;10.76;50.30;91537.69;2071597;69;20175;-79
2024/03/09 08:57:41;;;;;;;6.75;3.40;;;;;;;11.61;49.72;91574.19;2071610;69;20152;-78
2024/03/09 09:00:09;;;;;;;7.32;4.82;;;;;;;11.39;50.25;91576.84;2071523;69;20133;-77
2024/03/09 09:02:37;;;;;;;3.42;2.50;;;;;;;11.78;49.68;91586.09;2071237;69;20163;-77
2024/03/09 09:05:11;;;;;;;4.57;2.50;;;;;;;12.27;49.13;91571.00;2068286;69;20151;-78
2024/03/09 09:07:40;;;;;;;6.13;3.33;;;;;;;12.88;46.76;91576.72;2071652;69;20217;-78
2024/03/09 09:10:11;;;;;;;4.57;3.00;;;;;;;13.06;47.17;91593.56;2071598;69;20149;-78
2024/03/09 09:12:43;;;;;;;5.00;2.40;;;;;;;13.74;44.32;91562.53;2071546;69;20146;-78
2024/03/09 09:15:10;;;;;;;5.45;2.55;;;;;;;14.21;43.51;91592.25;2068352;69;20150;-78
2024/03/09 09:17:36;;;;;;;3.80;3.20;;;;;;;14.40;44.78;91577.25;2071411;69;20159;-78
2024/03/09 09:20:03;;;;;;;4.72;2.88;;;;;;;15.06;42.41;91591.13;2071528;69;20148;-79
2024/03/09 09:22:29;;;;;;;6.70;3.30;;;;;;;15.00;42.61;91586.00;2071503;69;20143;-78
2024/03/09 09:24:56;;;;;;;4.45;2.70;;;;;;;15.02;42.63;91584.63;2071557;69;20145;-79
2024/03/09 09:27:23;;;;;;;5.95;2.30;;;;;;;15.27;41.44;91575.38;2071493;69;20147;-79
2024/03/09 09:29:49;;;;;;;2.42;1.92;;;;;;;15.76;40.90;91573.78;2067778;69;20200;-78
2024/03/09 09:32:14;;;;;;;4.13;1.90;;;;;;;15.02;40.03;91559.13;2071278;69;20518;-78
2024/03/09 09:34:40;;;;;;;2.65;2.00;;;;;;;14.03;41.53;91569.81;2071496;69;20233;-77
2024/03/09 09:37:12;;;;;;;4.18;2.65;;;;;;;13.99;40.95;91558.34;2068238;69;20148;-79
2024/03/09 09:39:38;;;;;;;2.55;2.10;;;;;;;15.15;41.29;91549.53;2071724;69;20159;-80
2024/03/09 09:42:05;;;;;;;3.17;1.98;;;;;;;15.83;40.16;91554.75;2071502;69;20298;-79
2024/03/09 09:44:30;;;;;;;2.55;1.83;;;;;;;16.37;39.68;91552.41;2071481;69;20238;-79
2024/03/09 09:46:56;;;;;;;2.38;1.80;;;;;;;16.59;39.24;91546.47;2071389;69;20550;-79
2024/03/09 09:49:26;;;;;;;3.55;1.98;;;;;;;17.30;38.54;91546.41;2071573;69;20204;-82
2024/03/09 09:51:53;;;;;;;2.30;1.60;;;;;;;17.71;37.33;91547.81;2068089;69;20152;-80
2024/03/09 09:54:26;;;;;;;1.30;1.20;;;;;;;17.69;35.08;91539.25;2071502;69;20251;-80
2024/03/09 09:56:56;;;;;;;2.90;1.38;;;;;;;18.02;36.21;91531.94;2071436;69;20152;-82
2024/03/09 09:59:23;;;;;;;1.35;1.20;;;;;;;17.47;34.75;91539.59;2071458;69;20136;-81
2024/03/09 10:01:49;;;;;;;1.25;1.00;;;;;;;18.04;34.35;91546.91;2071360;69;20187;-82
2024/03/09 10:04:18;;;;;;;1.40;1.08;;;;;;;17.70;34.40;91541.41;2071513;69;20227;-81
2024/03/09 10:06:47;;;;;;;1.30;1.20;;;;;;;18.71;34.42;91527.19;2071346;69;20254;-78
2024/03/09 10:09:28;;;;;;;3.58;1.67;;;;;;;18.15;33.52;91525.00;2071458;69;20178;-78
2024/03/09 10:11:57;;;;;;;3.03;1.50;;;;;;;18.36;34.79;91523.16;2071340;69;20194;-79
2024/03/09 10:14:32;;;;;;;1.48;1.10;;;;;;;20.09;32.41;91532.81;2071218;69;20187;-79
2024/03/09 10:17:11;;;;;;;1.80;1.10;;;;;;;20.96;32.00;91515.44;2070985;69;20134;-78
2024/03/09 10:19:38;;;;;;;1.30;1.20;;;;;;;20.20;32.66;91505.00;2071949;69;20156;-78
2024/03/09 10:22:03;;;;;;;1.50;1.20;;;;;;;22.14;30.58;91512.06;2071807;69;20172;-80
2024/03/09 10:24:29;;;;;;;2.03;1.20;;;;;;;19.62;31.98;91521.03;2071988;69;20600;-80
2024/03/09 10:27:03;;;;;;;1.40;1.20;;;;;;;22.05;31.07;91507.75;2071889;69;20152;-80
2024/03/09 10:29:29;;;;;;;1.15;0.90;;;;;;;22.46;31.53;91499.13;2072029;69;20148;-82
2024/03/09 10:31:56;;;;;;;2.38;1.20;;;;;;;22.39;29.54;91489.78;2071647;69;20180;-78
2024/03/09 10:34:25;;;;;;;1.63;1.10;;;;;;;22.79;28.17;91491.84;2071899;69;20156;-79
2024/03/09 10:36:55;;;;;;;1.30;1.20;;;;;;;23.07;28.23;91487.44;2072003;69;20168;-79
2024/03/09 10:39:21;;;;;;;1.58;1.10;;;;;;;24.32;28.07;91485.13;2071687;69;20160;-80
2024/03/09 10:41:53;;;;;;;2.20;1.10;;;;;;;24.63;28.68;91472.63;2072266;69;20167;-80
2024/03/09 10:44:19;;;;;;;0.90;0.80;;;;;;;21.03;29.52;91448.22;2072853;69;20615;-79
2024/03/09 10:46:49;;;;;;;1.30;0.77;;;;;;;22.98;29.01;91457.34;2072121;69;20301;-78
2024/03/09 10:49:20;;;;;;;1.48;1.00;;;;;;;25.60;26.24;91476.47;2071914;69;20148;-79
2024/03/09 10:51:51;;;;;;;1.65;1.13;;;;;;;26.55;24.97;91465.59;2071896;69;20525;-78
2024/03/09 10:54:20;;;;;;;0.60;0.60;;;;;;;26.36;25.11;91468.06;2072033;69;20152;-78
2024/03/09 10:56:57;;;;;;;1.55;1.10;;;;;;;25.20;25.61;91464.06;2071831;69;20221;-79
2024/03/09 10:59:27;;;;;;;1.15;0.75;;;;;;;25.74;26.03;91466.88;2072175;69;20507;-79
2024/03/09 11:01:55;;;;;;;1.00;0.90;;;;;;;27.50;25.97;91461.56;2068497;69;20152;-79
2024/03/09 11:04:21;;;;;;;0.80;0.80;;;;;;;26.41;25.29;91456.47;2068588;69;20116;-79
2024/03/09 11:06:47;;;;;;;1.63;0.70;;;;;;;26.96;23.69;91469.88;2068901;69;20190;-79
2024/03/09 11:09:19;;;;;;;0.85;0.73;;;;;;;27.47;24.93;91458.00;2071890;69;20239;-80
2024/03/09 11:11:46;;;;;;;;;;;;;;;29.11;23.75;91460.53;2068732;69;20147;-80
2024/03/09 11:14:16;;;;;;;1.10;1.00;;;;;;;26.61;23.72;91453.22;2071884;69;20044;-80
2024/03/09 11:16:42;;;;;;;1.02;0.80;;;;;;;29.33;23.21;91436.00;2068440;69;20158;-80
2024/03/09 11:19:14;;;;;;;1.92;0.77;;;;;;;31.00;22.62;91441.56;2071876;69;20149;-80
2024/03/09 11:21:40;;;;;;;1.27;0.73;;;;;;;31.75;21.40;91441.00;2071890;69;20572;-77
2024/03/09 11:24:13;;;;;;;0.93;0.73;;;;;;;29.02;22.58;91436.16;2071853;69;20141;-78
2024/03/09 11:26:45;;;;;;;2.17;0.65;;;;;;;27.19;23.58;91421.78;2071847;69;20144;-78
2024/03/09 11:29:12;;;;;;;2.35;0.80;;;;;;;27.03;23.61;91424.97;2071683;69;20136;-78
2024/03/09 11:31:41;;;;;;;0.60;0.55;;;;;;;26.82;23.61;91436.94;2071723;69;20140;-78
2024/03/09 11:34:07;;;;;;;0.60;0.60;;;;;;;29.47;22.57;91426.19;2068413;69;20150;-78
2024/03/09 11:36:38;;;;;;;2.80;0.60;;;;;;;31.38;21.44;91419.84;2071743;69;20286;-80
2024/03/09 11:39:04;;;;;;;0.82;0.40;;;;;;;28.92;21.23;91413.25;2071843;69;20261;-79
2024/03/09 11:41:31;;;;;;;0.40;0.40;;;;;;;31.26;21.03;91413.75;2071857;69;20137;-79
2024/03/09 11:47:44;;;;;;;0.40;0.40;;;;;;;27.45;23.09;91399.56;2071593;69;20175;-78
2024/03/09 11:50:10;;;;;;;0.93;0.35;;;;;;;29.57;21.72;91396.91;2071874;69;20518;-77
2024/03/09 11:52:35;;;;;;;0.45;0.40;;;;;;;29.95;21.10;91391.34;2071892;69;20575;-80
2024/03/09 11:55:04;;;;;;;0.40;0.40;;;;;;;31.60;19.97;91395.00;2071515;69;20306;-79
2024/03/09 11:57:31;;;;;;;0.25;0.25;;;;;;;35.41;17.60;91393.81;2071705;69;20160;-77
2024/03/09 11:59:57;;;;;;;0.65;0.65;;;;;;;33.79;19.01;91406.22;2071676;69;20145;-78
2024/03/09 12:02:24;;;;;;;0.40;0.40;;;;;;;33.41;19.20;91386.06;2071397;69;20155;-79
2024/03/09 12:04:56;;;;;;;0.68;0.30;;;;;;;37.73;16.84;91403.28;2065630;69;20523;-77
2024/03/09 12:07:22;;;;;;;0.20;0.20;;;;;;;38.81;16.32;91398.63;2071896;69;20148;-76
2024/03/09 12:09:49;;;;;;;0.40;0.30;;;;;;;37.45;16.32;91396.25;2071806;69;20140;-79
2024/03/09 12:12:15;;;;;;;0.40;0.30;;;;;;;36.37;17.35;91391.50;2071751;69;20229;-77
2024/03/09 12:14:42;;;;;;;0.30;0.30;;;;;;;36.28;15.81;91399.34;2071783;69;20156;-77